Terminal Aerodrome Forecast
Issued by NWS Twin Cities, MN

Home | Current Version | Previous Version | Text Only | Print | Product List | Glossary Off
Versions: 1 2 3 4 5 6 7 8 9 10 11 12 13 14 15 16 17 18 19 20 21 22 23 24 25 26

929
FTUS43 KMPX 271139
TAFMSP
TAF
KMSP 271139Z 2712/2818 29012KT P6SM SKC
     FM271400 30014G22KT P6SM SCT025 BKN035
     FM271800 31014G23KT P6SM VCSH SCT020 BKN030
     FM272100 32012KT P6SM -SHRA SCT025 OVC040
     FM280200 34008KT P6SM BKN040
     FM280900 36009KT P6SM SCT060=

USA.gov is the U.S. government's official web portal to all federal, state and local government web resources and services.